Time;durP1;ratioP1;P1;durP2;ratioP2;P2;SDS_P1;SDS_P2;PMS_P1;PMS_P2;Temp;Humidity;BMP_temperature;BMP_pressure;BME280_temperature;BME280_humidity;BME280_pressure;Samples;Min_cycle;Max_cycle;Signal;HPM_P1;HPM_P2
2022/01/23 00:00:49;;;;;;;0.50;0.50;;;;;;;;;;5062316;28;20189;-67
2022/01/23 00:03:19;;;;;;;0.60;0.60;;;;;;;;;;5060364;28;20229;-67
2022/01/23 00:05:47;;;;;;;0.60;0.60;;;;;;;;;;5062891;28;20252;-67
2022/01/23 00:08:20;;;;;;;0.50;0.50;;;;;;;;;;5060287;28;20175;-68
2022/01/23 00:10:47;;;;;;;0.60;0.60;;;;;;;;;;5060223;28;20236;-66
2022/01/23 00:18:24;;;;;;;0.60;0.60;;;;;;;;;;5061916;28;20250;-67
2022/01/23 00:20:50;;;;;;;0.60;0.60;;;;;;;;;;5059798;28;20193;-67
2022/01/23 00:31:51;;;;;;;0.50;0.50;;;;;;;;;;5054420;28;20195;-67
2022/01/23 00:34:17;;;;;;;0.60;0.60;;;;;;;;;;5065147;28;20179;-67
2022/01/23 00:36:43;;;;;;;0.55;0.55;;;;;;;;;;5047674;28;20416;-66
2022/01/23 00:39:09;;;;;;;0.60;0.60;;;;;;;;;;5046271;28;20237;-67
2022/01/23 00:41:35;;;;;;;0.60;0.60;;;;;;;;;;5065635;28;20546;-67
2022/01/23 00:44:03;;;;;;;0.60;0.60;;;;;;;;;;5046599;28;20904;-66
2022/01/23 00:46:33;;;;;;;0.60;0.60;;;;;;;;;;5063989;28;20965;-66
2022/01/23 00:51:31;;;;;;;0.60;0.60;;;;;;;;;;5065502;28;20574;-67
2022/01/23 00:53:57;;;;;;;0.60;0.60;;;;;;;;;;5063997;28;20537;-67
2022/01/23 00:56:23;;;;;;;0.50;0.50;;;;;;;;;;5046060;28;20176;-66
2022/01/23 00:58:49;;;;;;;0.60;0.60;;;;;;;;;;5062791;28;20253;-67
2022/01/23 01:01:16;;;;;;;0.60;0.60;;;;;;;;;;5108273;22;20492;-63
2022/01/23 01:03:42;;;;;;;0.50;0.50;;;;;;;;;;5093954;28;20495;-63
2022/01/23 01:06:08;;;;;;;0.52;0.52;;;;;;;;;;5094889;28;20197;-63
2022/01/23 01:08:34;;;;;;;0.60;0.60;;;;;;;;;;5076466;28;20205;-64
2022/01/23 01:11:49;;;;;;;0.70;0.70;;;;;;;;;;5094554;28;20207;-63
2022/01/23 01:35:23;;;;;;;0.50;0.50;;;;;;;;;;5094543;28;20173;-64
2022/01/23 01:37:49;;;;;;;0.60;0.60;;;;;;;;;;5094363;28;20173;-64
2022/01/23 01:40:15;;;;;;;0.70;0.70;;;;;;;;;;5094073;28;20272;-64
2022/01/23 01:42:41;;;;;;;0.60;0.60;;;;;;;;;;5093513;28;20409;-64
2022/01/23 01:45:07;;;;;;;0.50;0.50;;;;;;;;;;5094086;28;20177;-64
2022/01/23 01:47:33;;;;;;;0.50;0.50;;;;;;;;;;5094091;28;20406;-64
2022/01/23 01:49:59;;;;;;;0.60;0.60;;;;;;;;;;5093843;28;20209;-64
2022/01/23 01:52:25;;;;;;;0.60;0.60;;;;;;;;;;5093956;28;20555;-64
2022/01/23 01:55:00;;;;;;;0.60;0.60;;;;;;;;;;5093850;28;20399;-63
2022/01/23 01:57:31;;;;;;;0.50;0.50;;;;;;;;;;5093841;28;20185;-63
2022/01/23 02:00:12;;;;;;;0.52;0.52;;;;;;;;;;5093728;28;20297;-64
2022/01/23 02:10:49;;;;;;;0.50;0.50;;;;;;;;;;5094048;28;20235;-63
2022/01/23 02:13:20;;;;;;;0.50;0.50;;;;;;;;;;5093739;28;20173;-63
2022/01/23 02:50:56;;;;;;;0.50;0.50;;;;;;;;;;5092724;28;20283;-63
2022/01/23 02:53:51;;;;;;;0.60;0.60;;;;;;;;;;5096579;28;20193;-64
2022/01/23 02:56:31;;;;;;;0.50;0.50;;;;;;;;;;5092684;28;20179;-64
2022/01/23 02:59:00;;;;;;;0.50;0.50;;;;;;;;;;5092779;28;20174;-64
2022/01/23 03:01:31;;;;;;;0.50;0.50;;;;;;;;;;5092459;28;20231;-63
2022/01/23 03:04:02;;;;;;;0.50;0.50;;;;;;;;;;5092327;28;20174;-64
2022/01/23 03:30:37;;;;;;;0.60;0.60;;;;;;;;;;5092013;28;20210;-63
2022/01/23 03:33:03;;;;;;;0.60;0.60;;;;;;;;;;5091758;28;20189;-64
2022/01/23 03:35:29;;;;;;;0.60;0.60;;;;;;;;;;5092009;28;20239;-63
2022/01/23 03:37:56;;;;;;;0.50;0.50;;;;;;;;;;5091894;28;20549;-64
2022/01/23 03:40:22;;;;;;;0.50;0.50;;;;;;;;;;5091787;28;20196;-63
2022/01/23 03:42:55;;;;;;;0.50;0.50;;;;;;;;;;5091866;28;20259;-64
2022/01/23 03:50:38;;;;;;;0.50;0.50;;;;;;;;;;5091871;28;20293;-63
2022/01/23 03:53:05;;;;;;;0.50;0.50;;;;;;;;;;5091559;28;20181;-64
2022/01/23 03:55:31;;;;;;;0.50;0.50;;;;;;;;;;5091824;28;20169;-64
2022/01/23 03:57:57;;;;;;;0.50;0.50;;;;;;;;;;5091821;28;20547;-64
2022/01/23 04:00:23;;;;;;;0.50;0.50;;;;;;;;;;5091540;28;20296;-64
2022/01/23 04:02:49;;;;;;;0.50;0.50;;;;;;;;;;5091463;28;20414;-63
2022/01/23 04:05:15;;;;;;;0.60;0.60;;;;;;;;;;5090679;28;20173;-64
2022/01/23 04:07:41;;;;;;;0.50;0.50;;;;;;;;;;5091667;28;20444;-64
2022/01/23 04:10:08;;;;;;;0.60;0.60;;;;;;;;;;5091532;28;20462;-64
2022/01/23 04:16:04;;;;;;;0.50;0.50;;;;;;;;;;5091812;28;20200;-64
2022/01/23 04:48:37;;;;;;;0.60;0.60;;;;;;;;;;5091427;28;20695;-63
2022/01/23 05:01:42;;;;;;;0.50;0.50;;;;;;;;;;5091080;28;20227;-64
2022/01/23 05:04:15;;;;;;;0.50;0.50;;;;;;;;;;5090953;28;20540;-63
2022/01/23 05:06:47;;;;;;;0.60;0.60;;;;;;;;;;5090982;28;20223;-64
2022/01/23 05:09:14;;;;;;;0.50;0.50;;;;;;;;;;5091000;28;20204;-64
2022/01/23 05:11:47;;;;;;;0.50;0.50;;;;;;;;;;5090980;28;20193;-64
2022/01/23 05:14:13;;;;;;;0.40;0.40;;;;;;;;;;5090958;28;20198;-64
2022/01/23 05:16:39;;;;;;;0.60;0.60;;;;;;;;;;5092326;28;20180;-64
2022/01/23 05:19:07;;;;;;;0.50;0.50;;;;;;;;;;5094522;28;20634;-64
2022/01/23 05:24:01;;;;;;;0.50;0.50;;;;;;;;;;5094272;28;20192;-63
2022/01/23 05:26:27;;;;;;;0.50;0.50;;;;;;;;;;5094600;28;20892;-64
2022/01/23 05:28:53;;;;;;;0.53;0.53;;;;;;;;;;5093576;28;20201;-63
2022/01/23 05:31:19;;;;;;;0.60;0.60;;;;;;;;;;5095111;28;20463;-64
2022/01/23 05:33:44;;;;;;;0.60;0.60;;;;;;;;;;5094111;28;20409;-64
2022/01/23 05:36:10;;;;;;;0.50;0.50;;;;;;;;;;5094103;28;20417;-63
2022/01/23 05:38:36;;;;;;;0.50;0.50;;;;;;;;;;5094260;28;21030;-63
2022/01/23 05:41:02;;;;;;;0.60;0.60;;;;;;;;;;5094167;28;20414;-64
2022/01/23 05:43:28;;;;;;;0.50;0.50;;;;;;;;;;5093953;28;20168;-63
2022/01/23 05:45:54;;;;;;;0.50;0.50;;;;;;;;;;5094064;28;20395;-63
2022/01/23 05:48:21;;;;;;;0.50;0.50;;;;;;;;;;5094049;28;20180;-64
2022/01/23 05:50:47;;;;;;;0.50;0.50;;;;;;;;;;5093896;28;20255;-64
2022/01/23 05:53:13;;;;;;;0.50;0.50;;;;;;;;;;5093778;28;20169;-64
2022/01/23 05:55:39;;;;;;;0.50;0.50;;;;;;;;;;5094081;28;20257;-63
2022/01/23 05:58:05;;;;;;;0.60;0.60;;;;;;;;;;5094119;28;20748;-63
2022/01/23 06:00:31;;;;;;;0.50;0.50;;;;;;;;;;5093631;28;20472;-63
2022/01/23 06:02:57;;;;;;;0.50;0.50;;;;;;;;;;5093385;28;20181;-64
2022/01/23 06:05:23;;;;;;;0.50;0.50;;;;;;;;;;5093320;28;20184;-63
2022/01/23 06:07:50;;;;;;;0.60;0.60;;;;;;;;;;5092747;28;20456;-64
2022/01/23 06:10:23;;;;;;;0.60;0.60;;;;;;;;;;5093535;28;20512;-64
2022/01/23 06:12:49;;;;;;;0.50;0.50;;;;;;;;;;5093588;28;20205;-63
2022/01/23 06:15:15;;;;;;;0.60;0.60;;;;;;;;;;5093546;28;20594;-63
2022/01/23 06:17:42;;;;;;;0.50;0.50;;;;;;;;;;5093526;28;20565;-63
2022/01/23 06:20:09;;;;;;;0.50;0.50;;;;;;;;;;5093491;28;20199;-63
2022/01/23 06:22:35;;;;;;;0.50;0.50;;;;;;;;;;5093124;28;20229;-64
2022/01/23 06:25:04;;;;;;;0.50;0.50;;;;;;;;;;5093392;28;20171;-63
2022/01/23 06:27:30;;;;;;;0.50;0.50;;;;;;;;;;5093322;28;20835;-64
2022/01/23 06:29:56;;;;;;;0.50;0.50;;;;;;;;;;5093156;28;20232;-63
2022/01/23 06:32:22;;;;;;;0.50;0.50;;;;;;;;;;5092502;28;20409;-64
2022/01/23 06:34:48;;;;;;;0.60;0.60;;;;;;;;;;5093066;28;20687;-64
2022/01/23 06:37:14;;;;;;;0.50;0.50;;;;;;;;;;5092994;28;20407;-63
2022/01/23 06:39:40;;;;;;;0.50;0.50;;;;;;;;;;5093013;28;20895;-64
2022/01/23 06:42:06;;;;;;;0.50;0.50;;;;;;;;;;5093074;28;20177;-64
2022/01/23 06:44:32;;;;;;;0.50;0.50;;;;;;;;;;5092771;28;20760;-64
2022/01/23 06:46:58;;;;;;;0.60;0.60;;;;;;;;;;5092973;28;20181;-64
2022/01/23 06:49:24;;;;;;;0.50;0.50;;;;;;;;;;5074464;28;20218;-64
2022/01/23 06:51:51;;;;;;;0.40;0.40;;;;;;;;;;5092815;28;20662;-63
2022/01/23 06:54:17;;;;;;;0.60;0.60;;;;;;;;;;5092509;28;20169;-64
2022/01/23 06:56:43;;;;;;;0.50;0.50;;;;;;;;;;5092764;28;20643;-63
2022/01/23 06:59:09;;;;;;;0.50;0.50;;;;;;;;;;5092599;28;20187;-64
2022/01/23 07:01:35;;;;;;;0.60;0.60;;;;;;;;;;5137092;22;20498;-65
2022/01/23 07:04:01;;;;;;;0.60;0.60;;;;;;;;;;5111913;28;20185;-65
2022/01/23 07:06:27;;;;;;;0.60;0.60;;;;;;;;;;5111547;28;20407;-65
2022/01/23 07:08:53;;;;;;;0.50;0.50;;;;;;;;;;5112755;28;20656;-65
2022/01/23 07:11:19;;;;;;;0.60;0.60;;;;;;;;;;5112688;28;20510;-65
2022/01/23 07:13:45;;;;;;;0.60;0.60;;;;;;;;;;5112310;28;20474;-66
2022/01/23 07:16:11;;;;;;;0.50;0.50;;;;;;;;;;5112620;28;20173;-65
2022/01/23 07:18:37;;;;;;;0.60;0.60;;;;;;;;;;5112583;28;20169;-65
2022/01/23 07:21:03;;;;;;;0.50;0.50;;;;;;;;;;5112448;28;20781;-65
2022/01/23 07:23:29;;;;;;;0.60;0.60;;;;;;;;;;5110974;28;20405;-65
2022/01/23 07:25:55;;;;;;;0.50;0.50;;;;;;;;;;5112555;28;20540;-65
2022/01/23 07:28:25;;;;;;;0.50;0.50;;;;;;;;;;5111187;28;20180;-65
2022/01/23 07:30:55;;;;;;;0.50;0.50;;;;;;;;;;5112391;28;20828;-65
2022/01/23 07:33:21;;;;;;;0.50;0.50;;;;;;;;;;5112137;28;20538;-65
2022/01/23 07:35:47;;;;;;;0.60;0.60;;;;;;;;;;5112292;28;20168;-65
2022/01/23 07:38:16;;;;;;;0.50;0.50;;;;;;;;;;5112321;28;20397;-65
2022/01/23 07:40:43;;;;;;;0.50;0.50;;;;;;;;;;5111837;28;20209;-65
2022/01/23 07:43:09;;;;;;;0.60;0.60;;;;;;;;;;5111954;28;20294;-65
2022/01/23 07:45:35;;;;;;;0.60;0.60;;;;;;;;;;5112241;28;20177;-65
2022/01/23 07:48:01;;;;;;;0.50;0.50;;;;;;;;;;5112008;28;20210;-65
2022/01/23 07:50:27;;;;;;;0.50;0.50;;;;;;;;;;5111964;28;20465;-65
2022/01/23 07:52:53;;;;;;;0.50;0.50;;;;;;;;;;5102900;28;20522;-65
2022/01/23 07:55:19;;;;;;;0.50;0.50;;;;;;;;;;5091721;28;20407;-65
2022/01/23 07:57:45;;;;;;;0.50;0.50;;;;;;;;;;5091598;28;20402;-65
2022/01/23 08:00:12;;;;;;;0.50;0.50;;;;;;;;;;5089704;28;20435;-65
2022/01/23 08:02:38;;;;;;;0.50;0.50;;;;;;;;;;5092005;28;20224;-65
2022/01/23 08:05:04;;;;;;;0.50;0.50;;;;;;;;;;5091494;28;20184;-65
2022/01/23 08:07:31;;;;;;;0.60;0.60;;;;;;;;;;5073431;28;20169;-65
2022/01/23 08:09:57;;;;;;;0.52;0.52;;;;;;;;;;5091385;28;20604;-65
2022/01/23 08:12:24;;;;;;;0.50;0.50;;;;;;;;;;5091430;28;20172;-65
2022/01/23 08:14:50;;;;;;;0.60;0.60;;;;;;;;;;5091223;28;20635;-66
2022/01/23 08:17:16;;;;;;;0.60;0.60;;;;;;;;;;5095105;28;20184;-65
2022/01/23 08:19:42;;;;;;;0.50;0.50;;;;;;;;;;5111679;28;20179;-65
2022/01/23 08:22:08;;;;;;;0.60;0.60;;;;;;;;;;5111672;28;20195;-65
2022/01/23 08:24:34;;;;;;;0.60;0.60;;;;;;;;;;5110231;28;20425;-65
2022/01/23 08:27:00;;;;;;;0.50;0.50;;;;;;;;;;5111518;28;20892;-65
2022/01/23 08:29:26;;;;;;;0.60;0.60;;;;;;;;;;5101555;28;20200;-65
2022/01/23 08:31:52;;;;;;;0.60;0.60;;;;;;;;;;5102889;28;20453;-65
2022/01/23 08:34:18;;;;;;;0.60;0.60;;;;;;;;;;5109766;28;20920;-65
2022/01/23 08:36:44;;;;;;;0.60;0.60;;;;;;;;;;5110066;28;20498;-65
2022/01/23 08:39:10;;;;;;;0.60;0.60;;;;;;;;;;5111364;28;20414;-65
2022/01/23 08:41:51;;;;;;;0.50;0.50;;;;;;;;;;5111047;28;20452;-65
2022/01/23 08:44:18;;;;;;;0.60;0.60;;;;;;;;;;5109021;28;20184;-65
2022/01/23 08:46:44;;;;;;;0.50;0.50;;;;;;;;;;5111880;28;20180;-66
2022/01/23 08:49:10;;;;;;;0.50;0.50;;;;;;;;;;5111388;28;20212;-65
2022/01/23 08:51:36;;;;;;;0.50;0.50;;;;;;;;;;5112810;28;20873;-65
2022/01/23 08:54:03;;;;;;;0.50;0.50;;;;;;;;;;5115343;28;20180;-65
2022/01/23 08:56:29;;;;;;;0.50;0.50;;;;;;;;;;5114731;28;20191;-65
2022/01/23 08:58:55;;;;;;;0.50;0.50;;;;;;;;;;5102717;28;20620;-65
2022/01/23 09:01:22;;;;;;;0.50;0.50;;;;;;;;;;5076195;28;20213;-65
2022/01/23 09:03:48;;;;;;;0.60;0.60;;;;;;;;;;5111256;28;20184;-65
2022/01/23 09:06:14;;;;;;;0.60;0.60;;;;;;;;;;5115153;28;20180;-65
2022/01/23 09:08:40;;;;;;;0.60;0.60;;;;;;;;;;5114983;28;20411;-65
2022/01/23 09:11:10;;;;;;;0.60;0.60;;;;;;;;;;5114160;28;20473;-65
2022/01/23 09:13:53;;;;;;;0.60;0.60;;;;;;;;;;5114728;28;20173;-65
2022/01/23 09:16:19;;;;;;;0.50;0.50;;;;;;;;;;5084709;28;20176;-65
2022/01/23 09:18:45;;;;;;;0.60;0.60;;;;;;;;;;5102203;28;20197;-65
2022/01/23 09:21:11;;;;;;;0.60;0.60;;;;;;;;;;5114786;28;20201;-65
2022/01/23 09:23:37;;;;;;;0.60;0.60;;;;;;;;;;5114538;28;20256;-65
2022/01/23 09:26:09;;;;;;;0.60;0.60;;;;;;;;;;5115083;28;21071;-65
2022/01/23 09:28:38;;;;;;;0.60;0.60;;;;;;;;;;5114820;28;20173;-65
2022/01/23 09:31:04;;;;;;;0.50;0.50;;;;;;;;;;5092912;28;20471;-66
2022/01/23 09:33:30;;;;;;;0.50;0.50;;;;;;;;;;5114789;28;20252;-65
2022/01/23 09:35:56;;;;;;;0.50;0.50;;;;;;;;;;5114896;28;20547;-65
2022/01/23 09:38:22;;;;;;;0.50;0.50;;;;;;;;;;5097195;28;20209;-65
2022/01/23 09:40:50;;;;;;;0.50;0.50;;;;;;;;;;5094034;28;20432;-65
2022/01/23 09:43:18;;;;;;;0.50;0.50;;;;;;;;;;5093970;28;20434;-65
2022/01/23 09:45:48;;;;;;;0.50;0.50;;;;;;;;;;5119956;27;20186;-65
2022/01/23 09:48:15;;;;;;;0.50;0.50;;;;;;;;;;5117934;27;20763;-65
2022/01/23 09:50:42;;;;;;;0.50;0.50;;;;;;;;;;5116241;27;20208;-65
2022/01/23 09:53:08;;;;;;;0.50;0.50;;;;;;;;;;5095657;28;20539;-65
2022/01/23 09:55:35;;;;;;;0.50;0.50;;;;;;;;;;5113739;28;20183;-65
2022/01/23 09:58:01;;;;;;;0.50;0.50;;;;;;;;;;5114111;28;20169;-65
2022/01/23 10:00:30;;;;;;;0.50;0.50;;;;;;;;;;5113519;28;20292;-65
2022/01/23 10:02:57;;;;;;;0.50;0.50;;;;;;;;;;5113556;28;20496;-65
2022/01/23 10:05:23;;;;;;;0.50;0.50;;;;;;;;;;5113716;28;20177;-65
2022/01/23 10:07:49;;;;;;;0.60;0.60;;;;;;;;;;5113903;28;20204;-65
2022/01/23 10:10:20;;;;;;;0.60;0.60;;;;;;;;;;5113173;28;20220;-65
2022/01/23 10:12:50;;;;;;;0.60;0.60;;;;;;;;;;5075262;28;20814;-65
2022/01/23 10:15:18;;;;;;;0.50;0.50;;;;;;;;;;5110480;28;20212;-65
2022/01/23 10:17:44;;;;;;;0.50;0.50;;;;;;;;;;5113872;28;20174;-67
2022/01/23 10:20:12;;;;;;;0.50;0.50;;;;;;;;;;5111689;28;20228;-65
2022/01/23 10:22:40;;;;;;;0.50;0.50;;;;;;;;;;5112750;28;20180;-65
2022/01/23 10:25:17;;;;;;;0.50;0.50;;;;;;;;;;5096082;28;20301;-65
2022/01/23 10:28:05;;;;;;;0.50;0.50;;;;;;;;;;5113242;27;20185;-65
2022/01/23 10:30:33;;;;;;;0.50;0.50;;;;;;;;;;5134464;27;20199;-65
2022/01/23 10:33:06;;;;;;;0.50;0.50;;;;;;;;;;5134576;27;20172;-65
2022/01/23 10:35:32;;;;;;;0.50;0.50;;;;;;;;;;5113355;28;20529;-65
2022/01/23 10:38:05;;;;;;;0.60;0.60;;;;;;;;;;5113668;28;20176;-65
2022/01/23 10:40:35;;;;;;;0.50;0.50;;;;;;;;;;5113394;28;20196;-65
2022/01/23 10:48:25;;;;;;;0.60;0.60;;;;;;;;;;5113314;28;20940;-65
2022/01/23 10:50:53;;;;;;;0.50;0.50;;;;;;;;;;5113094;28;20240;-65
2022/01/23 10:53:19;;;;;;;0.60;0.60;;;;;;;;;;5112056;28;20611;-65
2022/01/23 10:55:46;;;;;;;0.50;0.50;;;;;;;;;;5112819;28;20236;-65
2022/01/23 10:58:19;;;;;;;0.60;0.60;;;;;;;;;;5113007;28;20226;-65
2022/01/23 11:00:45;;;;;;;0.50;0.50;;;;;;;;;;5112867;28;20213;-65
2022/01/23 11:03:21;;;;;;;0.50;0.50;;;;;;;;;;5112655;28;20176;-65
2022/01/23 11:05:48;;;;;;;0.60;0.60;;;;;;;;;;5112729;28;20462;-65
2022/01/23 11:08:32;;;;;;;0.60;0.60;;;;;;;;;;5112783;28;20218;-65
2022/01/23 11:11:02;;;;;;;0.68;0.68;;;;;;;;;;5112205;28;20212;-65
2022/01/23 11:19:19;;;;;;;0.60;0.60;;;;;;;;;;5112697;28;20203;-65
2022/01/23 11:21:45;;;;;;;0.50;0.50;;;;;;;;;;5112454;28;20199;-65
2022/01/23 11:24:12;;;;;;;0.60;0.60;;;;;;;;;;5112236;28;20172;-66
2022/01/23 11:26:39;;;;;;;0.50;0.50;;;;;;;;;;5112436;28;20410;-65
2022/01/23 11:29:12;;;;;;;0.60;0.60;;;;;;;;;;5112523;28;20817;-65
2022/01/23 11:31:39;;;;;;;0.60;0.60;;;;;;;;;;5112359;28;20184;-66
2022/01/23 11:34:08;;;;;;;0.50;0.50;;;;;;;;;;5112431;28;20627;-65
2022/01/23 11:36:35;;;;;;;0.50;0.50;;;;;;;;;;5112372;28;20173;-65
2022/01/23 11:39:09;;;;;;;0.50;0.50;;;;;;;;;;5112249;28;20173;-65
2022/01/23 11:55:42;;;;;;;0.50;0.50;;;;;;;;;;5112255;28;20201;-65
2022/01/23 11:58:08;;;;;;;0.50;0.50;;;;;;;;;;5111950;28;20176;-65
2022/01/23 12:00:37;;;;;;;0.50;0.50;;;;;;;;;;5111925;28;20265;-66
2022/01/23 12:03:06;;;;;;;0.50;0.50;;;;;;;;;;5093546;28;20241;-65
2022/01/23 12:05:33;;;;;;;0.50;0.50;;;;;;;;;;5111940;28;20219;-65
2022/01/23 12:08:18;;;;;;;0.50;0.50;;;;;;;;;;5111769;28;20185;-65
2022/01/23 12:11:16;;;;;;;0.50;0.50;;;;;;;;;;5112213;28;20300;-66
2022/01/23 12:16:26;;;;;;;0.50;0.50;;;;;;;;;;5111728;28;20181;-65
2022/01/23 12:18:52;;;;;;;0.60;0.60;;;;;;;;;;5111826;28;20398;-66
2022/01/23 12:21:28;;;;;;;0.50;0.50;;;;;;;;;;5111376;28;20221;-66
2022/01/23 12:24:01;;;;;;;0.50;0.50;;;;;;;;;;5111235;28;20173;-65
2022/01/23 12:26:27;;;;;;;0.50;0.50;;;;;;;;;;5114475;28;20188;-65
2022/01/23 12:28:54;;;;;;;0.50;0.50;;;;;;;;;;5115675;28;20533;-66
2022/01/23 12:31:24;;;;;;;0.60;0.60;;;;;;;;;;5116050;28;20699;-66
2022/01/23 12:33:58;;;;;;;0.50;0.50;;;;;;;;;;5115735;28;20226;-66
2022/01/23 12:36:28;;;;;;;0.50;0.50;;;;;;;;;;5115775;28;20188;-65
2022/01/23 12:38:56;;;;;;;0.50;0.50;;;;;;;;;;5115698;28;20184;-65
2022/01/23 12:41:33;;;;;;;0.60;0.60;;;;;;;;;;5115735;28;20537;-66
2022/01/23 12:44:01;;;;;;;0.55;0.55;;;;;;;;;;5115618;28;20161;-66
2022/01/23 12:46:37;;;;;;;0.60;0.60;;;;;;;;;;5115738;28;20193;-66
2022/01/23 12:49:22;;;;;;;0.60;0.60;;;;;;;;;;5115454;28;20283;-66
2022/01/23 12:51:49;;;;;;;0.50;0.50;;;;;;;;;;5115677;28;20568;-65
2022/01/23 12:54:16;;;;;;;0.60;0.60;;;;;;;;;;5115286;28;20166;-65
2022/01/23 12:56:46;;;;;;;0.50;0.50;;;;;;;;;;5097191;28;20172;-65
2022/01/23 12:59:21;;;;;;;0.50;0.50;;;;;;;;;;5115389;28;20174;-66
2022/01/23 13:01:47;;;;;;;0.50;0.50;;;;;;;;;;5103730;22;20232;-67
2022/01/23 13:04:15;;;;;;;0.50;0.50;;;;;;;;;;5073876;28;20486;-67
2022/01/23 13:06:50;;;;;;;0.50;0.50;;;;;;;;;;5074489;28;20172;-67
2022/01/23 13:12:47;;;;;;;0.50;0.50;;;;;;;;;;5074593;28;20202;-67
2022/01/23 13:15:19;;;;;;;0.50;0.50;;;;;;;;;;5073072;28;20236;-66
2022/01/23 13:31:47;;;;;;;0.50;0.50;;;;;;;;;;5074479;28;20577;-67
2022/01/23 13:34:24;;;;;;;0.55;0.55;;;;;;;;;;5074096;28;20257;-67
2022/01/23 13:36:56;;;;;;;0.50;0.50;;;;;;;;;;5073313;28;20174;-66
2022/01/23 13:39:23;;;;;;;0.60;0.60;;;;;;;;;;5077514;28;20174;-66
2022/01/23 13:42:08;;;;;;;0.50;0.50;;;;;;;;;;5075489;28;20203;-66
2022/01/23 13:51:12;;;;;;;0.52;0.52;;;;;;;;;;5074015;28;20251;-66
2022/01/23 13:53:08;;;;;;;0.60;0.60;;;;;;;;;;5073324;28;20193;-66
2022/01/23 13:58:37;;;;;;;0.60;0.60;;;;;;;;;;5074018;28;20776;-67
2022/01/23 14:01:19;;;;;;;0.60;0.60;;;;;;;;;;5073735;28;20284;-67
2022/01/23 14:03:45;;;;;;;0.50;0.50;;;;;;;;;;5073390;28;20181;-67
2022/01/23 14:06:12;;;;;;;0.52;0.52;;;;;;;;;;5073464;28;20183;-67
2022/01/23 14:08:38;;;;;;;0.50;0.50;;;;;;;;;;5073652;28;20219;-66
2022/01/23 14:11:04;;;;;;;0.60;0.60;;;;;;;;;;5072734;28;20610;-66
2022/01/23 14:13:30;;;;;;;0.60;0.60;;;;;;;;;;5073564;28;20260;-66
2022/01/23 14:15:56;;;;;;;0.50;0.50;;;;;;;;;;5073518;28;20405;-67
2022/01/23 14:18:29;;;;;;;0.60;0.60;;;;;;;;;;5073309;28;20417;-66
2022/01/23 14:20:57;;;;;;;0.60;0.60;;;;;;;;;;5073480;28;20199;-68
2022/01/23 14:23:23;;;;;;;0.60;0.60;;;;;;;;;;5072229;28;20673;-68
2022/01/23 14:26:00;;;;;;;0.60;0.60;;;;;;;;;;5073225;28;20215;-65
2022/01/23 14:28:29;;;;;;;0.60;0.60;;;;;;;;;;5073329;28;20174;-66
2022/01/23 14:30:58;;;;;;;0.50;0.50;;;;;;;;;;5073102;28;20285;-66
2022/01/23 14:33:28;;;;;;;0.60;0.60;;;;;;;;;;5072814;28;20168;-66
2022/01/23 14:35:54;;;;;;;0.50;0.50;;;;;;;;;;5073127;28;20166;-68
2022/01/23 14:38:22;;;;;;;0.60;0.60;;;;;;;;;;5072885;28;20254;-66
2022/01/23 14:40:52;;;;;;;0.50;0.50;;;;;;;;;;5072683;28;20197;-66
2022/01/23 14:43:18;;;;;;;0.50;0.50;;;;;;;;;;5073407;28;20372;-66
2022/01/23 14:45:46;;;;;;;0.50;0.50;;;;;;;;;;5073081;28;20300;-66
2022/01/23 14:48:13;;;;;;;0.50;0.50;;;;;;;;;;5071335;28;20178;-68
2022/01/23 14:50:40;;;;;;;0.50;0.50;;;;;;;;;;5070014;28;20262;-68
2022/01/23 14:53:08;;;;;;;0.60;0.60;;;;;;;;;;5072698;28;20173;-66
2022/01/23 14:55:35;;;;;;;0.60;0.60;;;;;;;;;;5073254;28;20382;-67
2022/01/23 14:58:01;;;;;;;0.60;0.60;;;;;;;;;;5073116;28;20253;-65
2022/01/23 15:00:32;;;;;;;0.50;0.50;;;;;;;;;;5072444;28;20174;-66
2022/01/23 15:03:00;;;;;;;0.50;0.50;;;;;;;;;;5072623;28;20857;-63
2022/01/23 15:05:29;;;;;;;0.50;0.50;;;;;;;;;;5072211;28;20185;-67
2022/01/23 15:07:55;;;;;;;0.57;0.57;;;;;;;;;;5072308;28;20179;-67
2022/01/23 15:10:21;;;;;;;0.50;0.50;;;;;;;;;;5072319;28;20214;-67
2022/01/23 15:12:47;;;;;;;0.60;0.60;;;;;;;;;;5071933;28;20404;-68
2022/01/23 15:15:12;;;;;;;0.60;0.60;;;;;;;;;;5072756;28;20487;-66
2022/01/23 15:17:39;;;;;;;0.50;0.50;;;;;;;;;;5071957;28;20908;-68
2022/01/23 15:20:05;;;;;;;0.60;0.60;;;;;;;;;;5072589;28;21135;-67
2022/01/23 15:22:31;;;;;;;0.70;0.70;;;;;;;;;;5069225;28;20296;-67
2022/01/23 15:24:58;;;;;;;0.50;0.50;;;;;;;;;;5071874;28;20266;-66
2022/01/23 15:27:24;;;;;;;0.50;0.50;;;;;;;;;;5070504;28;20405;-67
2022/01/23 15:29:50;;;;;;;0.50;0.50;;;;;;;;;;5071139;28;20271;-67
2022/01/23 15:32:15;;;;;;;0.50;0.50;;;;;;;;;;5071019;28;20476;-69
2022/01/23 15:34:42;;;;;;;0.50;0.50;;;;;;;;;;5071624;28;20886;-69
2022/01/23 15:37:08;;;;;;;0.50;0.50;;;;;;;;;;5071260;28;20419;-66
2022/01/23 15:39:35;;;;;;;0.60;0.60;;;;;;;;;;5071660;28;20175;-67
2022/01/23 15:42:01;;;;;;;0.50;0.50;;;;;;;;;;5071648;28;20206;-65
2022/01/23 15:44:27;;;;;;;0.50;0.50;;;;;;;;;;5071762;28;20269;-67
2022/01/23 15:46:53;;;;;;;0.50;0.50;;;;;;;;;;5071392;28;20548;-67
2022/01/23 15:49:19;;;;;;;0.50;0.50;;;;;;;;;;5072125;28;20202;-66
2022/01/23 15:51:47;;;;;;;0.55;0.55;;;;;;;;;;5079835;28;20750;-67
2022/01/23 15:54:14;;;;;;;0.70;0.70;;;;;;;;;;5071066;28;20262;-66
2022/01/23 15:56:40;;;;;;;0.60;0.60;;;;;;;;;;5071092;28;20641;-67
2022/01/23 15:59:06;;;;;;;0.50;0.50;;;;;;;;;;5071404;28;20189;-67
2022/01/23 16:01:36;;;;;;;0.50;0.50;;;;;;;;;;5070634;28;20448;-66
2022/01/23 16:04:02;;;;;;;0.60;0.60;;;;;;;;;;5071235;28;20170;-66
2022/01/23 16:06:28;;;;;;;0.60;0.60;;;;;;;;;;5071396;28;20178;-67
2022/01/23 16:08:54;;;;;;;0.60;0.60;;;;;;;;;;5071318;28;20255;-67
2022/01/23 16:11:21;;;;;;;0.60;0.60;;;;;;;;;;5071867;28;20452;-67
2022/01/23 16:13:47;;;;;;;0.60;0.60;;;;;;;;;;5071342;28;20661;-67
2022/01/23 16:16:13;;;;;;;0.60;0.60;;;;;;;;;;5068110;28;20717;-66
2022/01/23 16:18:39;;;;;;;0.60;0.60;;;;;;;;;;5067963;28;20205;-68
2022/01/23 16:21:07;;;;;;;0.60;0.60;;;;;;;;;;5071941;28;20830;-67
2022/01/23 16:23:33;;;;;;;0.52;0.52;;;;;;;;;;5071775;28;20173;-67
2022/01/23 16:25:59;;;;;;;0.50;0.50;;;;;;;;;;5070858;28;20265;-66
2022/01/23 16:28:25;;;;;;;0.60;0.60;;;;;;;;;;5071583;28;20266;-67
2022/01/23 16:30:53;;;;;;;0.57;0.57;;;;;;;;;;5071185;28;20574;-66
2022/01/23 16:33:19;;;;;;;0.57;0.57;;;;;;;;;;5069718;28;20178;-67
2022/01/23 16:35:45;;;;;;;0.65;0.65;;;;;;;;;;5071593;28;20268;-67
2022/01/23 16:38:12;;;;;;;0.50;0.50;;;;;;;;;;5071065;28;20178;-68
2022/01/23 16:40:39;;;;;;;0.50;0.50;;;;;;;;;;5070110;28;20206;-64
2022/01/23 16:43:05;;;;;;;0.43;0.43;;;;;;;;;;5069381;28;20190;-66
2022/01/23 16:45:31;;;;;;;0.60;0.60;;;;;;;;;;5062765;28;20700;-68
2022/01/23 16:47:57;;;;;;;0.70;0.70;;;;;;;;;;5069983;28;20183;-67
2022/01/23 16:50:24;;;;;;;0.60;0.60;;;;;;;;;;5071133;28;20489;-67
2022/01/23 16:52:51;;;;;;;0.50;0.50;;;;;;;;;;5071286;28;20409;-68
2022/01/23 16:55:18;;;;;;;0.50;0.50;;;;;;;;;;5070994;28;20657;-68
2022/01/23 16:57:44;;;;;;;0.63;0.63;;;;;;;;;;5070179;28;20255;-68
2022/01/23 17:00:11;;;;;;;0.60;0.60;;;;;;;;;;5071298;28;20544;-72
2022/01/23 17:02:37;;;;;;;0.60;0.60;;;;;;;;;;5070885;28;20434;-69
2022/01/23 17:05:03;;;;;;;0.50;0.50;;;;;;;;;;5071164;28;20197;-68
2022/01/23 17:07:29;;;;;;;0.50;0.50;;;;;;;;;;5069677;28;20214;-69
2022/01/23 17:09:55;;;;;;;0.50;0.50;;;;;;;;;;5054520;28;20699;-66
2022/01/23 17:12:21;;;;;;;0.60;0.60;;;;;;;;;;5070743;28;20492;-64
2022/01/23 17:14:47;;;;;;;0.60;0.60;;;;;;;;;;5073921;28;20423;-67
2022/01/23 17:17:13;;;;;;;0.50;0.50;;;;;;;;;;5075011;28;20413;-68
2022/01/23 17:19:39;;;;;;;0.60;0.60;;;;;;;;;;5074044;28;20437;-68
2022/01/23 17:22:05;;;;;;;0.60;0.60;;;;;;;;;;5074164;28;20503;-68
2022/01/23 17:24:36;;;;;;;0.60;0.60;;;;;;;;;;5074170;28;20415;-67
2022/01/23 17:27:02;;;;;;;0.60;0.60;;;;;;;;;;5074334;28;20511;-67
2022/01/23 17:29:27;;;;;;;0.50;0.50;;;;;;;;;;5073627;28;20296;-68
2022/01/23 17:31:53;;;;;;;0.60;0.60;;;;;;;;;;5074051;28;20787;-67
2022/01/23 17:34:20;;;;;;;0.50;0.50;;;;;;;;;;5073349;28;21048;-68
2022/01/23 17:36:46;;;;;;;0.60;0.60;;;;;;;;;;5074559;28;20474;-68
2022/01/23 17:39:12;;;;;;;0.60;0.60;;;;;;;;;;5074500;28;20196;-68
2022/01/23 17:41:40;;;;;;;0.50;0.50;;;;;;;;;;5073200;28;20455;-68
2022/01/23 17:44:06;;;;;;;0.50;0.50;;;;;;;;;;5073919;28;20400;-68
2022/01/23 17:46:34;;;;;;;0.50;0.50;;;;;;;;;;5073808;28;20178;-68
2022/01/23 17:51:27;;;;;;;0.50;0.50;;;;;;;;;;5056027;28;20249;-66
2022/01/23 17:53:53;;;;;;;0.60;0.60;;;;;;;;;;5062255;28;20174;-68
2022/01/23 17:56:20;;;;;;;0.50;0.50;;;;;;;;;;5072809;28;20175;-68
2022/01/23 17:58:46;;;;;;;0.60;0.60;;;;;;;;;;5071852;28;20176;-67
2022/01/23 18:01:12;;;;;;;0.50;0.50;;;;;;;;;;5071755;28;20218;-67
2022/01/23 18:03:39;;;;;;;0.60;0.60;;;;;;;;;;5072169;28;20519;-67
2022/01/23 18:06:10;;;;;;;0.60;0.60;;;;;;;;;;5072622;28;20209;-67
2022/01/23 18:08:36;;;;;;;0.50;0.50;;;;;;;;;;5072641;28;20182;-67
2022/01/23 18:11:02;;;;;;;0.60;0.60;;;;;;;;;;5072812;28;20205;-68
2022/01/23 18:13:28;;;;;;;0.50;0.50;;;;;;;;;;5072509;28;20170;-68
2022/01/23 18:15:55;;;;;;;0.50;0.50;;;;;;;;;;5072481;28;20422;-67
2022/01/23 18:18:22;;;;;;;0.50;0.50;;;;;;;;;;5072142;28;20411;-67
2022/01/23 18:20:48;;;;;;;0.50;0.50;;;;;;;;;;5073376;28;20304;-69